createdAt,value
2022-11-07T00:02:03.101Z,11.14
2022-11-07T00:04:31.794Z,11.13
2022-11-07T00:07:00.093Z,11.13
2022-11-07T00:09:28.565Z,11.11
2022-11-07T00:11:56.895Z,11.10
2022-11-07T00:14:25.822Z,11.11
2022-11-07T00:16:55.491Z,11.12
2022-11-07T00:19:23.831Z,11.12
2022-11-07T00:21:52.194Z,11.11
2022-11-07T00:24:20.723Z,11.12
2022-11-07T00:26:49.279Z,11.12
2022-11-07T00:29:18.844Z,11.12
2022-11-07T00:31:47.283Z,11.12
2022-11-07T00:34:17.234Z,11.13
2022-11-07T00:36:45.736Z,11.15
2022-11-07T00:39:14.045Z,11.14
2022-11-07T00:41:42.484Z,11.15
2022-11-07T00:44:10.793Z,11.16
2022-11-07T00:46:39.195Z,11.16
2022-11-07T00:49:07.482Z,11.17
2022-11-07T00:51:37.354Z,11.16
2022-11-07T00:54:05.724Z,11.17
2022-11-07T00:56:34.142Z,11.17
2022-11-07T00:59:02.885Z,11.17
2022-11-07T01:01:32.427Z,11.17
2022-11-07T01:04:10.121Z,11.16
2022-11-07T01:06:41.544Z,11.15
2022-11-07T01:09:10.599Z,11.16
2022-11-07T01:11:39.532Z,11.16
2022-11-07T01:14:08.861Z,11.16
2022-11-07T01:16:39.096Z,11.17
2022-11-07T01:19:08.793Z,11.17
2022-11-07T01:21:38.477Z,11.17
2022-11-07T01:24:09.464Z,11.15
2022-11-07T01:26:38.136Z,11.15
2022-11-07T01:29:06.821Z,11.12
2022-11-07T01:31:35.274Z,11.10
2022-11-07T01:34:03.584Z,11.06
2022-11-07T01:36:32.098Z,11.08
2022-11-07T01:39:01.084Z,11.08
2022-11-07T01:41:32.725Z,11.07
2022-11-07T01:44:02.635Z,11.07
2022-11-07T01:46:32.350Z,11.06
2022-11-07T01:49:04.873Z,11.06
2022-11-07T01:51:35.076Z,11.05
2022-11-07T01:54:04.496Z,11.05
2022-11-07T01:56:37.044Z,11.04
2022-11-07T01:59:05.977Z,11.02
2022-11-07T02:01:34.318Z,11.02
2022-11-07T02:04:04.302Z,11.03
2022-11-07T02:06:37.276Z,11.01
2022-11-07T02:09:05.803Z,11.00
2022-11-07T02:11:35.529Z,11.01
2022-11-07T02:14:03.876Z,11.00
2022-11-07T02:16:33.342Z,10.99
2022-11-07T02:19:02.006Z,10.99
2022-11-07T02:21:36.403Z,10.97
2022-11-07T02:24:10.405Z,10.95
2022-11-07T02:26:41.242Z,10.94
2022-11-07T02:29:11.476Z,10.95
2022-11-07T02:31:39.780Z,10.94
2022-11-07T02:34:08.041Z,10.95
2022-11-07T02:36:36.303Z,10.96
2022-11-07T02:39:04.922Z,10.94
2022-11-07T02:41:35.728Z,10.95
2022-11-07T02:44:07.533Z,10.95
2022-11-07T02:46:36.587Z,10.96
2022-11-07T02:49:04.927Z,10.96
2022-11-07T02:51:33.296Z,10.96
2022-11-07T02:54:01.563Z,10.97
2022-11-07T02:56:29.850Z,10.98
2022-11-07T02:58:58.302Z,10.98
2022-11-07T03:01:28.619Z,10.98
2022-11-07T03:03:57.870Z,10.99
2022-11-07T03:06:27.054Z,10.96
2022-11-07T03:08:55.483Z,10.95
2022-11-07T03:11:23.715Z,10.94
2022-11-07T03:13:54.312Z,10.93
2022-11-07T03:16:23.815Z,10.93
2022-11-07T03:18:53.507Z,10.93
2022-11-07T03:21:22.336Z,10.92
2022-11-07T03:23:50.615Z,10.92
2022-11-07T03:26:18.965Z,10.93
2022-11-07T03:28:47.233Z,10.91
2022-11-07T03:31:15.597Z,10.87
2022-11-07T03:33:44.127Z,10.89
2022-11-07T03:36:14.363Z,10.88
2022-11-07T03:38:43.044Z,10.89
2022-11-07T03:41:17.423Z,10.86
2022-11-07T03:43:46.599Z,10.85
2022-11-07T03:46:14.959Z,10.85
2022-11-07T03:48:43.323Z,10.84
2022-11-07T03:51:12.319Z,10.85
2022-11-07T03:53:42.062Z,10.85
2022-11-07T03:56:11.395Z,10.86
2022-11-07T03:58:40.936Z,10.88
2022-11-07T04:01:10.746Z,10.85
2022-11-07T04:03:39.097Z,10.84
2022-11-07T04:06:07.862Z,10.81
2022-11-07T04:08:36.415Z,10.78
2022-11-07T04:11:06.128Z,10.78
2022-11-07T04:13:44.680Z,10.78
2022-11-07T04:16:23.377Z,10.76
2022-11-07T04:18:51.765Z,10.72
2022-11-07T04:21:20.098Z,10.68
2022-11-07T04:23:48.648Z,10.64
2022-11-07T04:26:28.565Z,10.59
2022-11-07T04:28:57.274Z,10.58
2022-11-07T04:31:25.858Z,10.54
2022-11-07T04:33:54.164Z,10.51
2022-11-07T04:36:22.497Z,10.49
2022-11-07T04:38:50.857Z,10.42
2022-11-07T04:41:24.109Z,10.41
2022-11-07T04:43:52.878Z,10.36
2022-11-07T04:46:23.558Z,10.30
2022-11-07T04:48:51.929Z,10.27
2022-11-07T04:51:22.379Z,10.22
2022-11-07T04:53:51.005Z,10.16
2022-11-07T04:56:19.296Z,10.11
2022-11-07T04:58:49.076Z,10.06
2022-11-07T05:01:18.691Z,10.01
2022-11-07T05:03:47.446Z,9.97
2022-11-07T05:06:15.999Z,9.94
2022-11-07T05:08:44.365Z,9.90
2022-11-07T05:11:12.654Z,9.87
2022-11-07T05:13:40.985Z,9.81
2022-11-07T05:16:13.710Z,9.77
2022-11-07T05:18:42.019Z,9.78
2022-11-07T05:21:10.379Z,9.72
2022-11-07T05:23:38.935Z,9.67
2022-11-07T05:26:07.427Z,9.64
2022-11-07T05:28:39.335Z,9.61
2022-11-07T05:31:09.257Z,9.57
2022-11-07T05:33:38.945Z,9.56
2022-11-07T05:36:14.596Z,9.55
2022-11-07T05:38:43.937Z,9.48
2022-11-07T05:41:12.579Z,9.47
2022-11-07T05:43:41.213Z,9.42
2022-11-07T05:46:09.546Z,9.40
2022-11-07T05:48:39.236Z,9.40
2022-11-07T05:51:08.724Z,9.34
2022-11-07T05:53:37.313Z,9.29
2022-11-07T05:56:05.868Z,9.20
2022-11-07T05:58:34.135Z,9.22
2022-11-07T06:01:03.489Z,9.26
2022-11-07T06:03:31.675Z,9.30
2022-11-07T06:06:01.467Z,9.30
2022-11-07T06:08:29.748Z,9.36
2022-11-07T06:10:58.039Z,9.38
2022-11-07T06:13:26.319Z,9.32
2022-11-07T06:15:54.555Z,9.27
2022-11-07T06:18:23.351Z,9.30
2022-11-07T06:20:51.668Z,9.35
2022-11-07T06:23:21.806Z,9.39
2022-11-07T06:25:51.896Z,9.43
2022-11-07T06:28:20.205Z,9.48
2022-11-07T06:30:50.270Z,9.53
2022-11-07T06:33:20.214Z,9.54
2022-11-07T06:35:49.067Z,9.55
2022-11-07T06:38:17.353Z,9.59
2022-11-07T06:40:47.089Z,9.60
2022-11-07T06:43:18.199Z,9.61
2022-11-07T06:45:48.491Z,9.61
2022-11-07T06:48:16.979Z,9.61
2022-11-07T06:50:45.292Z,9.64
2022-11-07T06:53:14.979Z,9.67
2022-11-07T06:55:43.537Z,9.69
2022-11-07T06:58:13.234Z,9.70
2022-11-07T07:00:41.662Z,9.71
2022-11-07T07:03:11.626Z,9.74
2022-11-07T07:05:40.087Z,9.75
2022-11-07T07:08:09.358Z,9.75
2022-11-07T07:10:39.695Z,9.79
2022-11-07T07:13:07.930Z,9.81
2022-11-07T07:15:50.382Z,9.78
2022-11-07T07:18:19.800Z,9.78
2022-11-07T07:20:48.605Z,9.80
2022-11-07T07:23:17.699Z,9.77
2022-11-07T07:25:46.217Z,9.78
2022-11-07T07:28:14.657Z,9.78
2022-11-07T07:30:50.299Z,9.78
2022-11-07T07:33:20.003Z,9.80
2022-11-07T07:35:48.291Z,9.81
2022-11-07T07:38:16.645Z,9.78
2022-11-07T07:40:44.951Z,9.73
2022-11-07T07:43:13.778Z,9.71
2022-11-07T07:45:42.318Z,9.69
2022-11-07T07:48:12.499Z,9.66
2022-11-07T07:50:40.775Z,9.59
2022-11-07T07:53:09.528Z,9.58
2022-11-07T07:55:38.024Z,9.56
2022-11-07T07:58:06.363Z,9.55
2022-11-07T08:00:34.973Z,9.56
2022-11-07T08:03:03.379Z,9.58
2022-11-07T08:05:33.553Z,9.56
2022-11-07T08:08:02.029Z,9.56
2022-11-07T08:10:45.910Z,9.57
2022-11-07T08:13:14.774Z,9.58
2022-11-07T08:15:43.273Z,9.62
2022-11-07T08:18:12.062Z,9.63
2022-11-07T08:20:41.752Z,9.64
2022-11-07T08:23:16.163Z,9.64
2022-11-07T08:25:50.339Z,9.64
2022-11-07T08:28:18.688Z,9.65
2022-11-07T08:30:47.591Z,9.66
2022-11-07T08:33:16.153Z,9.68
2022-11-07T08:35:46.123Z,9.73
2022-11-07T08:38:15.172Z,9.78
2022-11-07T08:40:43.385Z,9.78
2022-11-07T08:43:13.274Z,9.78
2022-11-07T08:45:41.704Z,9.83
2022-11-07T08:48:09.859Z,9.89
2022-11-07T08:50:38.122Z,9.94
2022-11-07T08:53:07.794Z,9.98
2022-11-07T08:55:36.270Z,9.98
2022-11-07T08:58:05.675Z,10.01
2022-11-07T09:00:34.839Z,10.05
2022-11-07T09:05:52.421Z,10.19
2022-11-07T09:08:22.043Z,10.24
2022-11-07T09:10:50.722Z,10.28
2022-11-07T09:13:20.923Z,10.29
2022-11-07T09:15:51.419Z,10.36
2022-11-07T09:18:20.803Z,10.35
2022-11-07T09:20:48.984Z,10.31
2022-11-07T09:23:17.551Z,10.35
2022-11-07T09:25:47.743Z,10.36
2022-11-07T09:28:16.621Z,10.34
2022-11-07T09:30:44.872Z,10.32
2022-11-07T09:33:13.476Z,10.30
2022-11-07T09:35:41.854Z,10.20
2022-11-07T09:38:10.103Z,10.20
2022-11-07T09:40:43.243Z,10.19
2022-11-07T09:43:29.154Z,10.16
2022-11-07T09:46:05.168Z,10.23
2022-11-07T09:48:36.355Z,10.27
2022-11-07T09:51:05.234Z,10.26
2022-11-07T09:53:35.904Z,10.28
2022-11-07T09:56:05.899Z,10.25
2022-11-07T09:58:35.552Z,10.23
2022-11-07T10:01:07.429Z,10.20
2022-11-07T10:03:36.875Z,10.23
2022-11-07T10:06:07.864Z,10.28
2022-11-07T10:08:40.452Z,10.37
2022-11-07T10:11:10.331Z,10.46
2022-11-07T10:13:53.001Z,10.48
2022-11-07T10:16:29.542Z,10.48
2022-11-07T10:19:02.935Z,10.46
2022-11-07T10:21:38.180Z,10.42
2022-11-07T10:24:18.171Z,10.36
2022-11-07T10:26:46.636Z,10.39
2022-11-07T10:29:16.036Z,10.47
2022-11-07T10:31:50.403Z,10.49
2022-11-07T10:34:22.842Z,10.57
2022-11-07T10:36:51.487Z,10.64
2022-11-07T10:39:21.114Z,10.71
2022-11-07T10:41:53.595Z,10.75
2022-11-07T10:44:25.232Z,10.73
2022-11-07T10:46:55.203Z,10.73
2022-11-07T10:49:24.577Z,10.69
2022-11-07T10:51:53.642Z,10.65
2022-11-07T10:54:23.363Z,10.63
2022-11-07T10:56:55.723Z,10.66
2022-11-07T10:59:29.057Z,10.69
2022-11-07T11:02:03.029Z,10.71
2022-11-07T11:04:32.697Z,10.71
2022-11-07T11:07:02.158Z,10.76
2022-11-07T11:09:31.257Z,10.84
2022-11-07T11:11:59.522Z,10.94
2022-11-07T11:14:27.904Z,11.03
2022-11-07T11:16:57.368Z,11.07
2022-11-07T11:19:29.217Z,11.08
2022-11-07T11:21:58.847Z,11.14
2022-11-07T11:24:31.916Z,11.19
2022-11-07T11:27:01.287Z,11.21
2022-11-07T11:29:39.266Z,11.22
2022-11-07T11:32:13.868Z,11.26
2022-11-07T11:34:50.859Z,11.20
2022-11-07T11:37:21.676Z,11.14
2022-11-07T11:39:53.028Z,11.17
2022-11-07T11:42:27.577Z,11.13
2022-11-07T11:44:58.777Z,11.07
2022-11-07T11:47:34.284Z,11.12
2022-11-07T11:50:10.578Z,11.19
2022-11-07T11:52:39.451Z,11.26
2022-11-07T11:55:14.125Z,11.36
2022-11-07T11:57:48.406Z,11.54
2022-11-07T12:00:18.635Z,11.78
2022-11-07T12:02:55.565Z,12.01
2022-11-07T12:05:35.288Z,12.10
2022-11-07T12:08:13.602Z,12.23
2022-11-07T12:10:45.590Z,12.27
2022-11-07T12:13:18.736Z,12.30
2022-11-07T12:15:53.677Z,12.33
2022-11-07T12:18:26.970Z,12.34
2022-11-07T12:21:04.118Z,12.28
2022-11-07T12:23:42.359Z,12.24
2022-11-07T12:26:14.995Z,12.27
2022-11-07T12:28:49.010Z,12.27
2022-11-07T12:31:25.047Z,12.25
2022-11-07T12:33:58.800Z,12.25
2022-11-07T12:36:37.858Z,12.25
2022-11-07T12:39:17.176Z,12.10
2022-11-07T12:41:50.327Z,12.12
2022-11-07T12:44:26.096Z,12.13
2022-11-07T12:46:55.625Z,12.16
2022-11-07T12:49:34.789Z,12.13
2022-11-07T12:52:07.377Z,12.10
2022-11-07T12:54:45.810Z,12.12
2022-11-07T12:57:16.496Z,12.12
2022-11-07T12:59:47.046Z,12.12
2022-11-07T13:02:22.724Z,12.08
2022-11-07T13:04:52.730Z,12.08
2022-11-07T13:07:25.878Z,12.08
2022-11-07T13:09:57.864Z,12.09
2022-11-07T13:12:30.192Z,12.08
2022-11-07T13:14:59.085Z,12.12
2022-11-07T13:17:30.734Z,12.07
2022-11-07T13:20:00.849Z,12.06
2022-11-07T13:22:37.945Z,12.09
2022-11-07T13:25:23.641Z,12.10
2022-11-07T13:28:03.011Z,12.13
2022-11-07T13:30:35.449Z,12.39
2022-11-07T13:33:04.472Z,12.52
2022-11-07T13:35:33.653Z,12.57
2022-11-07T13:38:08.571Z,12.60
2022-11-07T13:40:38.767Z,12.60
2022-11-07T13:43:11.833Z,12.58
2022-11-07T13:45:44.318Z,12.45
2022-11-07T13:48:17.045Z,12.34
2022-11-07T13:50:47.743Z,12.21
2022-11-07T13:53:20.933Z,12.05
2022-11-07T13:55:52.277Z,11.98
2022-11-07T13:58:21.073Z,11.93
2022-11-07T14:00:49.580Z,11.88
2022-11-07T14:03:24.945Z,11.82
2022-11-07T14:05:53.223Z,11.80
2022-11-07T14:08:24.431Z,11.80
2022-11-07T14:10:54.000Z,11.79
2022-11-07T14:13:23.982Z,11.75
2022-11-07T14:15:54.723Z,11.73
2022-11-07T14:18:24.183Z,11.68
2022-11-07T14:20:53.608Z,11.66
2022-11-07T14:23:24.442Z,11.63
2022-11-07T14:25:56.064Z,11.60
2022-11-07T14:28:24.547Z,11.58
2022-11-07T14:30:54.280Z,11.55
2022-11-07T14:33:23.599Z,11.54
2022-11-07T14:35:52.805Z,11.49
2022-11-07T14:38:25.314Z,11.47
2022-11-07T14:40:57.253Z,11.43
2022-11-07T14:43:26.830Z,11.38
2022-11-07T14:46:17.422Z,11.35
2022-11-07T14:48:47.593Z,11.28
2022-11-07T14:51:17.612Z,11.19
2022-11-07T14:53:50.452Z,11.02
2022-11-07T14:56:21.381Z,10.86
2022-11-07T14:58:50.043Z,10.72
2022-11-07T15:01:26.466Z,10.59
2022-11-07T15:03:56.123Z,10.48
2022-11-07T15:06:26.920Z,10.40
2022-11-07T15:08:59.153Z,10.31
2022-11-07T15:11:31.501Z,10.26
2022-11-07T15:14:01.111Z,10.25
2022-11-07T15:16:33.113Z,10.25
2022-11-07T15:19:02.973Z,10.25
2022-11-07T15:21:32.502Z,10.23
2022-11-07T15:24:01.694Z,10.16
2022-11-07T15:26:33.063Z,10.03
2022-11-07T15:29:16.889Z,9.96
2022-11-07T15:31:49.761Z,9.88
2022-11-07T15:34:33.782Z,9.78
2022-11-07T15:37:11.744Z,9.68
2022-11-07T15:39:39.999Z,9.54
2022-11-07T15:42:09.645Z,9.45
2022-11-07T15:44:38.300Z,9.41
2022-11-07T15:47:07.422Z,9.32
2022-11-07T15:49:36.027Z,9.24
2022-11-07T15:52:04.391Z,9.20
2022-11-07T15:54:32.783Z,9.16
2022-11-07T15:57:02.315Z,9.13
2022-11-07T15:59:33.802Z,9.04
2022-11-07T16:02:02.513Z,8.94
2022-11-07T16:04:30.785Z,8.91
2022-11-07T16:06:59.324Z,8.87
2022-11-07T16:09:29.299Z,8.82
2022-11-07T16:11:57.604Z,8.75
2022-11-07T16:17:16.228Z,8.64
2022-11-07T16:19:44.607Z,8.58
2022-11-07T16:22:13.526Z,8.55
2022-11-07T16:24:41.762Z,8.49
2022-11-07T16:27:11.090Z,8.39
2022-11-07T16:29:41.604Z,8.31
2022-11-07T16:32:12.884Z,8.29
2022-11-07T16:34:45.002Z,8.34
2022-11-07T16:37:13.487Z,8.24
2022-11-07T16:39:41.660Z,8.22
2022-11-07T16:42:13.503Z,8.22
2022-11-07T16:44:41.896Z,8.21
2022-11-07T16:47:13.481Z,8.23
2022-11-07T16:49:42.350Z,8.22
2022-11-07T16:52:14.544Z,8.16
2022-11-07T16:54:42.733Z,8.07
2022-11-07T16:57:13.479Z,8.02
2022-11-07T16:59:42.124Z,8.04
2022-11-07T17:02:20.425Z,8.00
2022-11-07T17:04:49.941Z,7.91
2022-11-07T17:07:20.471Z,7.82
2022-11-07T17:09:49.302Z,7.77
2022-11-07T17:12:18.519Z,7.77
2022-11-07T17:14:46.781Z,7.76
2022-11-07T17:17:15.610Z,7.79
2022-11-07T17:19:44.261Z,7.77
2022-11-07T17:22:12.903Z,7.76
2022-11-07T17:24:43.679Z,7.72
2022-11-07T17:27:19.943Z,7.72
2022-11-07T17:29:48.195Z,7.66
2022-11-07T17:32:16.361Z,7.56
2022-11-07T17:34:44.931Z,7.61
2022-11-07T17:37:15.302Z,7.61
2022-11-07T17:39:48.232Z,7.48
2022-11-07T17:42:16.640Z,7.41
2022-11-07T17:44:44.931Z,7.35
2022-11-07T17:47:24.353Z,7.35
2022-11-07T17:49:52.756Z,7.37
2022-11-07T17:52:21.192Z,7.38
2022-11-07T17:54:50.859Z,7.39
2022-11-07T17:57:19.188Z,7.39
2022-11-07T17:59:48.244Z,7.44
2022-11-07T18:02:17.259Z,7.39
2022-11-07T18:04:46.010Z,7.34
2022-11-07T18:07:14.309Z,7.40
2022-11-07T18:09:42.772Z,7.43
2022-11-07T18:12:12.532Z,7.44
2022-11-07T18:14:40.827Z,7.44
2022-11-07T18:17:09.554Z,7.44
2022-11-07T18:19:37.732Z,7.43
2022-11-07T18:22:05.989Z,7.45
2022-11-07T18:24:34.457Z,7.44
2022-11-07T18:27:06.642Z,7.33
2022-11-07T18:29:39.886Z,7.23
2022-11-07T18:32:09.253Z,7.15
2022-11-07T18:34:37.413Z,7.16
2022-11-07T18:37:05.823Z,7.19
2022-11-07T18:39:34.665Z,7.15
2022-11-07T18:42:03.194Z,7.12
2022-11-07T18:44:31.476Z,7.12
2022-11-07T18:47:01.267Z,7.14
2022-11-07T18:49:29.667Z,7.08
2022-11-07T18:51:58.099Z,7.01
2022-11-07T18:54:26.858Z,7.01
2022-11-07T18:56:55.304Z,6.96
2022-11-07T18:59:23.995Z,6.82
2022-11-07T19:01:52.432Z,6.77
2022-11-07T19:04:22.305Z,6.82
2022-11-07T19:07:00.503Z,6.88
2022-11-07T19:09:29.817Z,6.83
2022-11-07T19:11:58.365Z,6.82
2022-11-07T19:14:27.118Z,6.81
2022-11-07T19:16:55.786Z,6.83
2022-11-07T19:19:25.527Z,6.85
2022-11-07T19:21:53.959Z,6.82
2022-11-07T19:24:22.130Z,6.88
2022-11-07T19:26:50.597Z,6.93
2022-11-07T19:29:18.910Z,6.94
2022-11-07T19:31:47.257Z,6.91
2022-11-07T19:34:17.134Z,6.77
2022-11-07T19:36:46.924Z,6.59
2022-11-07T19:39:15.224Z,6.50
2022-11-07T19:41:43.455Z,6.50
2022-11-07T19:44:12.021Z,6.52
2022-11-07T19:46:40.385Z,6.47
2022-11-07T19:49:08.615Z,6.37
2022-11-07T19:51:37.544Z,6.31
2022-11-07T19:54:08.858Z,6.32
2022-11-07T19:56:37.708Z,6.40
2022-11-07T19:59:06.002Z,6.43
2022-11-07T20:01:35.545Z,6.47
2022-11-07T20:04:04.788Z,6.50
2022-11-07T20:06:36.070Z,6.49
2022-11-07T20:09:05.334Z,6.50
2022-11-07T20:11:35.327Z,6.49
2022-11-07T20:14:04.221Z,6.52
2022-11-07T20:16:33.514Z,6.50
2022-11-07T20:19:02.166Z,6.45
2022-11-07T20:21:31.256Z,6.45
2022-11-07T20:24:00.005Z,6.44
2022-11-07T20:26:29.065Z,6.41
2022-11-07T20:28:59.228Z,6.44
2022-11-07T20:31:29.094Z,6.44
2022-11-07T20:33:59.069Z,6.41
2022-11-07T20:36:27.864Z,6.42
2022-11-07T20:38:56.632Z,6.43
2022-11-07T20:41:25.406Z,6.41
2022-11-07T20:43:56.335Z,6.39
2022-11-07T20:46:26.746Z,6.43
2022-11-07T20:48:55.234Z,6.40
2022-11-07T20:51:25.360Z,6.31
2022-11-07T20:53:54.809Z,6.27
2022-11-07T20:56:24.159Z,6.20
2022-11-07T20:58:52.544Z,6.18
2022-11-07T21:01:22.812Z,6.20
2022-11-07T21:03:53.984Z,6.23
2022-11-07T21:06:22.634Z,6.22
2022-11-07T21:08:51.485Z,6.22
2022-11-07T21:11:19.819Z,6.22
2022-11-07T21:13:52.669Z,6.15
2022-11-07T21:16:22.476Z,6.09
2022-11-07T21:18:53.194Z,6.14
2022-11-07T21:21:22.783Z,6.10
2022-11-07T21:23:51.597Z,6.01
2022-11-07T21:26:21.616Z,6.04
2022-11-07T21:28:50.044Z,6.08
2022-11-07T21:31:21.987Z,6.10
2022-11-07T21:33:52.681Z,6.03
2022-11-07T21:36:23.369Z,6.04
2022-11-07T21:38:51.679Z,6.01
2022-11-07T21:41:19.937Z,6.03
2022-11-07T21:43:48.346Z,6.04
2022-11-07T21:46:18.596Z,6.04
2022-11-07T21:48:47.535Z,5.98
2022-11-07T21:51:18.734Z,5.96
2022-11-07T21:53:47.291Z,5.98
2022-11-07T21:56:16.341Z,5.99
2022-11-07T21:58:45.156Z,5.99
2022-11-07T22:01:13.546Z,6.02
2022-11-07T22:04:05.374Z,6.01
2022-11-07T22:06:33.396Z,5.99
2022-11-07T22:09:02.076Z,5.94
2022-11-07T22:11:30.534Z,5.93
2022-11-07T22:13:59.459Z,5.98
2022-11-07T22:16:28.050Z,5.94
2022-11-07T22:18:56.496Z,5.87
2022-11-07T22:21:25.050Z,5.82
2022-11-07T22:23:54.806Z,5.77
2022-11-07T22:26:24.977Z,5.61
2022-11-07T22:28:53.375Z,5.51
2022-11-07T22:31:23.949Z,5.54
2022-11-07T22:33:53.269Z,5.54
2022-11-07T22:36:21.979Z,5.59
2022-11-07T22:38:50.744Z,5.54
2022-11-07T22:41:21.477Z,5.49
2022-11-07T22:43:49.966Z,5.45
2022-11-07T22:46:19.322Z,5.51
2022-11-07T22:48:48.501Z,5.55
2022-11-07T22:51:18.304Z,5.51
2022-11-07T22:53:46.965Z,5.52
2022-11-07T22:56:16.695Z,5.56
2022-11-07T22:58:47.331Z,5.60
2022-11-07T23:01:17.611Z,5.63
2022-11-07T23:03:46.486Z,5.66
2022-11-07T23:06:14.956Z,5.61
2022-11-07T23:08:43.386Z,5.61
2022-11-07T23:11:44.674Z,5.63
2022-11-07T23:14:04.709Z,5.61
2022-11-07T23:16:33.961Z,5.56
2022-11-07T23:19:03.426Z,5.60
2022-11-07T23:21:32.067Z,5.61
2022-11-07T23:24:01.182Z,5.52
2022-11-07T23:26:34.255Z,5.50
2022-11-07T23:29:10.517Z,5.53
2022-11-07T23:31:39.937Z,5.45
2022-11-07T23:34:08.505Z,5.37
2022-11-07T23:36:36.986Z,5.40
2022-11-07T23:39:06.017Z,5.47
2022-11-07T23:41:34.623Z,5.49
2022-11-07T23:44:05.437Z,5.48
2022-11-07T23:46:43.627Z,5.46
2022-11-07T23:49:22.048Z,5.46
2022-11-07T23:51:50.425Z,5.46
2022-11-07T23:54:29.109Z,5.46
2022-11-07T23:56:57.506Z,5.46
2022-11-07T23:59:35.926Z,5.45
